Terminal Aerodrome Forecast
Issued by NWS

Home | Current Version | Previous Version | Text Only | Print | Product List | Glossary On
Versions: 1 2 3 4 5 6 7 8 9 10 11 12 13 14 15 16 17 18
000
FTUS41 KPBZ 262300
TAFHLG
TAF
KHLG 262320Z 2700/2724 32009KT P6SM VCSH OVC021
     FM270100 34008KT P6SM SCT025 OVC070
     FM271500 30005KT P6SM SCT025=

USA.gov is the U.S. government's official web portal to all federal, state and local government web resources and services.